Time,TemperatureF,DewpointF,PressureIn,WindDirection,WindDirectionDegrees,WindSpeedMPH,WindSpeedGustMPH,Humidity,HourlyPrecipIn,Conditions,Clouds,dailyrainin,SolarRadiationWatts/m^2,SoftwareType,DateUTC
2013-07-08 00:00:00,66.0,52.0,-100.00,South,171,10.0,-999.0,61,-99.99,,,-99.99,0.000000,,2013-07-08 06:00:00,
2013-07-08 00:53:00,66.0,52.0,-100.00,South,171,10.0,-999.0,61,-99.99,,,-99.99,0.000000,,2013-07-08 06:53:00,
2013-07-08 02:00:00,65.0,54.0,-100.00,South,170,4.0,8.0,67,-99.99,,,-99.99,0.000000,,2013-07-08 08:00:00,
2013-07-08 02:53:00,65.0,54.0,-100.00,South,170,4.0,8.0,67,-99.99,,,-99.99,0.000000,,2013-07-08 08:53:00,
2013-07-08 03:00:00,63.0,50.0,-100.00,SSE,157,4.0,9.0,61,-99.99,,,-99.99,0.000000,,2013-07-08 09:00:00,
2013-07-08 03:53:00,63.0,50.0,-100.00,SSE,157,4.0,9.0,61,-99.99,,,-99.99,0.000000,,2013-07-08 09:53:00,
2013-07-08 04:00:00,60.0,49.0,-100.00,SE,130,3.0,8.0,67,-99.99,,,-99.99,0.000000,,2013-07-08 10:00:00,
2013-07-08 04:53:00,60.0,49.0,-100.00,SE,130,3.0,8.0,67,-99.99,,,-99.99,0.000000,,2013-07-08 10:53:00,
2013-07-08 05:00:00,60.0,48.0,-100.00,SE,145,3.0,5.0,64,-99.99,,,-99.99,0.000000,,2013-07-08 11:00:00,
2013-07-08 06:00:00,56.0,48.0,-100.00,ESE,115,3.0,6.0,75,-99.99,,,-99.99,0.160000,,2013-07-08 12:00:00,
2013-07-08 07:00:00,62.0,48.0,-100.00,ESE,121,3.0,5.0,60,-99.99,,,-99.99,33.580002,,2013-07-08 13:00:00,
2013-07-08 07:53:00,62.0,48.0,-100.00,ESE,121,3.0,5.0,60,-99.99,,,-99.99,33.580002,,2013-07-08 13:53:00,
2013-07-08 08:00:00,70.0,48.0,-100.00,NE,42,1.0,5.0,45,-99.99,,,-99.99,188.000000,,2013-07-08 14:00:00,
2013-07-08 09:00:00,70.0,49.0,-100.00,South,181,3.0,-999.0,48,-99.99,,,-99.99,359.100006,,2013-07-08 15:00:00,
2013-07-08 09:53:00,70.0,49.0,-100.00,South,181,3.0,-999.0,48,-99.99,,,-99.99,359.100006,,2013-07-08 15:53:00,
2013-07-08 10:00:00,76.0,49.0,-100.00,SSE,158,4.0,-999.0,39,-99.99,,,-99.99,532.000000,,2013-07-08 16:00:00,
2013-07-08 12:00:00,85.0,41.0,-100.00,South,175,4.0,-999.0,21,-99.99,,,-99.99,858.000000,,2013-07-08 18:00:00,
2013-07-08 13:00:00,90.0,41.0,-100.00,SSE,162,4.0,-999.0,18,-99.99,,,-99.99,944.000000,,2013-07-08 19:00:00,
2013-07-08 16:00:00,91.0,31.0,-100.00,West,266,12.0,-999.0,12,-99.99,,,-99.99,710.900024,,2013-07-08 22:00:00,
2013-07-08 21:00:00,78.0,42.0,-100.00,SE,146,3.0,14.0,27,-99.99,,,-99.99,45.540001,,2013-07-09 03:00:00,
2013-07-08 22:00:00,78.0,39.0,-100.00,ESE,116,2.0,4.0,25,-99.99,,,-99.99,0.320000,,2013-07-09 04:00:00,
2013-07-08 23:00:00,74.0,41.0,-100.00,ESE,122,1.0,7.0,30,-99.99,,,-99.99,0.000000,,2013-07-09 05:00:00,
2013-07-08 23:52:00,74.0,41.0,-100.00,ESE,122,1.0,7.0,30,-99.99,,,-99.99,0.000000,,2013-07-09 05:52:00,